< Cyclone 198706 1987 Season Cyclone 198801 >
Cyclone 198707 (BLANCH)
General InformationTrack Information on Google MapsDetailed Wind InformationList of All Images || ResourceGoogle EarthGE AnimationAtom FeedGeoJSON
Detalied Best Track (Time Zone = UTC)
Year Month Day Hour Lat. Long. Pressure (hPa) Wind (kt) Class Image Chart
1987 5 21 03 -9.9 167.7 1005 21 2 Image --
1987 5 21 06 -10.0 166.8 1005 27 2 Image --
1987 5 21 12 -10.3 165.1 1005 21 2 Image --
1987 5 21 18 -10.6 163.7 1003 25 2 Image --
1987 5 22 00 -10.8 162.2 1003 25 2 Image --
1987 5 22 06 -11.0 160.9 998 41 3 Image --
1987 5 22 12 -11.9 159.9 994 51 4 Image --
1987 5 22 18 -12.6 159.4 990 60 4 Image --
1987 5 23 00 -13.0 159.1 990 60 4 Image --
1987 5 23 06 -13.5 158.8 990 60 4 Image --
1987 5 23 12 -13.9 158.6 990 60 4 Image --
1987 5 23 18 -14.4 158.2 990 60 4 Image --
1987 5 24 00 -14.8 157.7 990 54 4 Image --
1987 5 24 06 -15.1 157.4 992 51 4 Image --
1987 5 24 12 -15.3 157.1 995 49 4 Image --
1987 5 24 18 -15.7 156.9 995 49 4 Image --
1987 5 25 00 -16.0 156.9 998 41 3 Image --
1987 5 25 06 -16.4 157.0 1000 35 3 Image --
1987 5 25 12 -16.9 157.0 1000 35 3 Image --
1987 5 25 18 -17.4 156.5 1000 33 2 Image --
1987 5 26 00 -17.9 156.0 1002 29 2 Image --
1987 5 26 06 -18.3 155.6 1004 27 2 Image --
1987 5 26 12 -18.5 155.5 1006 25 2 Image --
1987 5 26 18 -19.2 156.0 1007 21 2 Image --
1987 5 27 00 -19.8 157.0 1008 19 2 Image --
< Cyclone 198706 1987 Season Cyclone 198801 >

Help